Time;durP1;ratioP1;P1;durP2;ratioP2;P2;SDS_P1;SDS_P2;PMS_P1;PMS_P2;Temp;Humidity;BMP_temperature;BMP_pressure;BME280_temperature;BME280_humidity;BME280_pressure;Samples;Min_cycle;Max_cycle;Signal;HPM_P1;HPM_P2
2022/09/26 00:02:14;;;;;;;;;0.25;0.25;;;;;14.08;58.69;100577.94;5087957;27;45338;-80
2022/09/26 00:04:39;;;;;;;;;2.50;1.75;;;;;13.57;58.91;100498.16;5115424;27;45411;-80
2022/09/26 00:07:04;;;;;;;;;1.75;1.00;;;;;13.98;59.32;100580.91;5096147;27;45345;-80
2022/09/26 00:09:30;;;;;;;;;1.25;1.00;;;;;13.88;59.67;100558.22;5055856;28;45531;-80
2022/09/26 00:11:55;;;;;;;;;2.00;2.00;;;;;13.89;59.89;100556.44;5059787;27;45492;-80
2022/09/26 00:14:27;;;;;;;;;1.00;1.00;;;;;13.95;59.37;100558.88;5095515;27;45456;-81
2022/09/26 00:16:54;;;;;;;;;0.00;0.00;;;;;13.94;59.38;100552.69;5107878;27;45437;-81
2022/09/26 00:19:20;;;;;;;;;2.50;1.00;;;;;13.85;59.83;100543.25;5130737;27;45628;-80
2022/09/26 00:21:46;;;;;;;;;1.00;1.00;;;;;13.92;59.65;100557.19;5122081;27;45384;-81
2022/09/26 00:24:11;;;;;;;;;1.50;1.50;;;;;13.84;59.86;100543.31;5100399;27;45395;-80
2022/09/26 00:26:37;;;;;;;;;2.00;2.00;;;;;13.72;60.08;100531.28;5100913;27;45371;-82
2022/09/26 00:29:08;;;;;;;;;0.50;0.00;;;;;13.79;60.03;100531.97;5099739;27;46576;-81
2022/09/26 00:31:43;;;;;;;;;1.00;1.00;;;;;13.77;60.23;100532.03;5080733;27;45517;-80
2022/09/26 00:34:13;;;;;;;;;1.75;1.00;;;;;13.74;60.22;100524.16;5097677;27;45383;-80
2022/09/26 00:36:38;;;;;;;;;2.00;2.00;;;;;13.81;60.84;100536.28;5097520;27;45405;-79
2022/09/26 00:39:06;;;;;;;;;1.00;1.00;;;;;13.61;60.12;100502.44;5097704;27;46072;-81
2022/09/26 00:41:31;;;;;;;;;1.00;1.00;;;;;13.68;60.08;100508.44;5080283;27;45455;-81
2022/09/26 00:43:57;;;;;;;;;1.00;1.00;;;;;13.64;59.86;100512.97;5099408;27;45454;-81
2022/09/26 00:46:42;;;;;;;;;1.00;1.00;;;;;13.63;60.59;100508.56;5101000;27;45543;-81
2022/09/26 00:49:46;;;;;;;;;1.00;1.00;;;;;13.65;60.45;100509.41;5100909;27;45444;-79
2022/09/26 00:52:34;;;;;;;;;1.75;1.50;;;;;13.59;60.51;100516.69;5119784;27;45450;-80
2022/09/26 00:55:02;;;;;;;;;0.50;0.50;;;;;13.62;60.27;100512.16;5109164;27;45472;-80
2022/09/26 00:57:37;;;;;;;;;0.50;0.50;;;;;13.60;60.47;100519.28;5099226;27;45327;-80
2022/09/26 01:00:08;;;;;;;;;1.50;1.50;;;;;13.60;60.33;100511.31;5080227;27;46241;-80
2022/09/26 01:02:33;;;;;;;;;1.00;1.00;;;;;13.51;60.81;100487.75;5098014;27;45503;-81
2022/09/26 01:05:00;;;;;;;;;1.00;1.00;;;;;13.60;60.21;100503.34;5098889;27;45448;-80
2022/09/26 01:07:27;;;;;;;;;2.25;2.25;;;;;13.52;60.19;100489.47;5099436;27;45517;-81
2022/09/26 01:09:54;;;;;;;;;3.50;1.75;;;;;13.24;60.59;100437.28;5097867;27;45607;-81
2022/09/26 01:12:20;;;;;;;;;2.00;2.00;;;;;13.54;60.79;100495.59;5080028;27;45930;-81
2022/09/26 01:14:49;;;;;;;;;1.25;1.25;;;;;13.38;60.90;100470.50;5096888;27;45261;-80
2022/09/26 01:17:15;;;;;;;;;0.50;0.50;;;;;13.48;60.37;100485.19;5099728;27;45319;-81
2022/09/26 01:19:40;;;;;;;;;3.00;2.00;;;;;13.51;60.59;100501.00;5079486;27;46950;-80
2022/09/26 01:22:24;;;;;;;;;2.00;1.25;;;;;13.50;60.55;100512.56;5098970;27;45478;-79
2022/09/26 01:25:11;;;;;;;;;2.00;1.00;;;;;13.51;60.70;100511.63;5096656;27;45261;-80
2022/09/26 01:28:04;;;;;;;;;2.00;1.00;;;;;13.24;60.72;100455.88;5099330;27;45346;-80
2022/09/26 01:30:48;;;;;;;;;1.00;1.00;;;;;13.50;60.86;100488.69;5078551;27;46205;-79
2022/09/26 01:33:13;;;;;;;;;0.00;0.00;;;;;13.45;60.60;100502.09;5097125;27;45410;-80
2022/09/26 01:35:41;;;;;;;;;1.00;1.00;;;;;13.47;61.20;100494.09;5096610;27;45362;-79
2022/09/26 01:38:10;;;;;;;;;1.00;1.00;;;;;13.43;60.99;100487.13;5097822;27;45489;-80
2022/09/26 01:41:00;;;;;;;;;1.00;1.00;;;;;13.44;61.02;100483.56;5097076;27;45341;-81
2022/09/26 01:43:49;;;;;;;;;0.00;0.00;;;;;13.44;60.65;100483.56;5079007;27;45561;-80
2022/09/26 01:46:35;;;;;;;;;0.50;0.00;;;;;13.44;60.46;100486.22;5102830;27;45480;-80
2022/09/26 01:49:10;;;;;;;;;0.25;0.25;;;;;13.41;60.77;100478.38;5096341;27;45571;-80
2022/09/26 01:51:43;;;;;;;;;2.00;2.00;;;;;13.39;60.95;100475.75;5097126;27;45348;-79
2022/09/26 01:54:16;;;;;;;;;0.25;0.25;;;;;13.29;60.64;100453.06;5096917;27;45435;-80
2022/09/26 01:56:45;;;;;;;;;0.00;0.00;;;;;13.37;60.21;100466.97;5077927;27;45459;-80
2022/09/26 01:59:27;;;;;;;;;1.00;1.00;;;;;13.37;60.29;100461.66;5098856;27;45313;-81
2022/09/26 02:02:00;;;;;;;;;0.50;0.50;;;;;13.35;59.48;100458.19;5100478;27;45569;-82
2022/09/26 02:04:36;;;;;;;;;0.50;0.50;;;;;13.24;60.07;100439.94;5099369;27;45446;-80
2022/09/26 02:07:15;;;;;;;;;0.75;0.75;;;;;13.20;59.97;100422.38;5108047;27;45347;-81
2022/09/26 02:09:46;;;;;;;;;1.25;1.00;;;;;13.32;59.39;100443.19;5095438;27;45731;-81
2022/09/26 02:12:18;;;;;;;;;0.00;0.00;;;;;13.30;59.16;100439.75;5076843;28;45912;-80
2022/09/26 02:14:47;;;;;;;;;0.25;0.25;;;;;13.17;59.57;100422.47;5081679;28;45362;-80
2022/09/26 02:17:19;;;;;;;;;1.00;1.00;;;;;13.31;59.53;100438.78;5103354;27;45411;-80
2022/09/26 02:20:09;;;;;;;;;2.00;1.00;;;;;13.35;58.94;100436.09;5097699;27;45402;-80
2022/09/26 02:22:35;;;;;;;;;1.00;1.00;;;;;13.28;59.61;100427.44;5100969;27;45444;-80
2022/09/26 02:25:02;;;;;;;;;1.00;1.00;;;;;13.30;59.83;100426.47;5100279;27;45318;-79
2022/09/26 02:27:28;;;;;;;;;0.50;0.50;;;;;13.29;59.37;100432.69;5094474;27;45278;-80
2022/09/26 02:29:53;;;;;;;;;0.00;0.00;;;;;13.26;59.51;100416.88;5097591;27;45402;-80
2022/09/26 02:32:29;;;;;;;;;0.25;0.00;;;;;13.22;60.21;100415.22;5096950;27;46202;-81
2022/09/26 02:34:55;;;;;;;;;0.00;0.00;;;;;13.23;60.04;100416.13;5094764;27;45821;-80
2022/09/26 02:37:21;;;;;;;;;0.00;0.00;;;;;13.21;59.74;100413.50;5095844;27;45597;-79
2022/09/26 02:39:49;;;;;;;;;1.00;1.00;;;;;13.21;60.37;100410.84;5093581;27;45366;-80
2022/09/26 02:42:42;;;;;;;;;0.00;0.00;;;;;13.20;59.87;100400.28;5094606;27;45529;-80
2022/09/26 02:45:37;;;;;;;;;0.00;0.00;;;;;13.15;60.52;100392.50;5095785;27;45540;-81
2022/09/26 02:48:11;;;;;;;;;1.00;1.00;;;;;13.14;60.14;100391.59;5084268;27;45464;-80
2022/09/26 02:51:01;;;;;;;;;0.50;0.50;;;;;13.10;59.85;100383.78;5096084;27;45457;-81
2022/09/26 02:53:45;;;;;;;;;0.00;0.00;;;;;13.07;60.07;100367.97;5096225;27;45430;-81
2022/09/26 02:56:26;;;;;;;;;1.00;1.00;;;;;13.07;60.49;100365.31;5096194;27;45523;-80
2022/09/26 02:59:00;;;;;;;;;0.00;0.00;;;;;13.07;60.68;100357.38;5098196;27;45409;-80
2022/09/26 03:01:52;;;;;;;;;1.50;0.25;;;;;13.07;60.14;100349.41;5096288;27;45564;-81
2022/09/26 03:04:21;;;;;;;;;0.00;0.00;;;;;13.07;60.39;100345.00;5095870;27;46132;-80
2022/09/26 03:06:52;;;;;;;;;1.00;1.00;;;;;13.07;60.43;100344.09;5095833;27;45513;-83
2022/09/26 03:09:21;;;;;;;;;2.50;0.75;;;;;12.52;59.88;100254.88;5088893;27;45369;-80
2022/09/26 03:11:48;;;;;;;;;0.50;0.50;;;;;13.02;60.32;100330.13;5095846;27;45570;-81
2022/09/26 03:14:16;;;;;;;;;0.00;0.00;;;;;12.53;60.03;100251.31;5095913;27;45707;-81
2022/09/26 03:16:44;;;;;;;;;1.00;0.25;;;;;13.03;60.39;100322.13;5067197;27;45606;-80
2022/09/26 03:19:40;;;;;;;;;0.00;0.00;;;;;13.05;60.13;100316.75;5074415;27;45342;-81
2022/09/26 03:22:05;;;;;;;;;0.00;0.00;;;;;12.85;60.31;100272.38;5096044;27;45523;-80
2022/09/26 03:24:31;;;;;;;;;0.50;0.50;;;;;13.00;60.13;100303.66;5095163;27;46183;-80
2022/09/26 03:26:57;;;;;;;;;1.00;1.00;;;;;12.95;60.25;100289.66;5096617;27;45441;-79
2022/09/26 03:29:23;;;;;;;;;1.25;1.25;;;;;12.37;60.70;100191.75;5096308;27;45498;-82
2022/09/26 03:31:49;;;;;;;;;0.00;0.00;;;;;12.96;60.56;100294.06;5076689;27;45375;-80
2022/09/26 03:34:15;;;;;;;;;0.50;0.50;;;;;12.88;60.34;100277.56;5095439;27;46136;-79
2022/09/26 03:36:41;;;;;;;;;1.00;1.00;;;;;12.93;60.91;100292.38;5096519;27;45395;-81
2022/09/26 03:39:06;;;;;;;;;1.00;1.00;;;;;12.66;60.78;100248.25;5107713;27;45361;-82
2022/09/26 03:41:33;;;;;;;;;0.00;0.00;;;;;12.71;61.18;100256.91;5097755;27;45448;-79
2022/09/26 03:43:58;;;;;;;;;2.00;1.25;;;;;12.89;61.24;100290.78;5078534;27;46181;-81
2022/09/26 03:46:24;;;;;;;;;0.75;0.75;;;;;12.90;60.68;100273.06;5080600;27;45378;-79
2022/09/26 03:48:49;;;;;;;;;0.75;0.75;;;;;12.90;61.07;100265.97;5097521;27;45287;-80
2022/09/26 03:51:15;;;;;;;;;0.00;0.00;;;;;12.88;60.93;100245.72;5095537;27;45701;-81
2022/09/26 03:53:44;;;;;;;;;2.00;1.00;;;;;12.85;60.14;100244.03;5078106;27;45572;-80
2022/09/26 03:56:16;;;;;;;;;0.00;0.00;;;;;12.93;60.11;100260.53;5095476;27;45451;-80
2022/09/26 03:58:42;;;;;;;;;0.25;0.00;;;;;12.92;60.10;100256.19;5097308;27;45464;-80
2022/09/26 04:01:11;;;;;;;;;0.25;0.25;;;;;12.91;60.19;100256.22;5076898;27;45602;-80
2022/09/26 04:03:38;;;;;;;;;0.25;0.25;;;;;12.80;59.71;100228.28;5095397;27;45386;-81
2022/09/26 04:06:07;;;;;;;;;1.00;1.00;;;;;12.95;59.68;100252.53;5098725;27;45351;-80
2022/09/26 04:08:33;;;;;;;;;3.00;1.50;;;;;12.90;59.90;100238.56;5096898;27;45433;-80
2022/09/26 04:11:07;;;;;;;;;0.00;0.00;;;;;12.94;59.53;100241.06;5085868;27;45619;-81
2022/09/26 04:13:33;;;;;;;;;0.00;0.00;;;;;12.91;59.24;100240.31;5104839;27;45362;-80
2022/09/26 04:15:59;;;;;;;;;1.50;0.00;;;;;12.91;59.38;100229.72;5095739;27;45627;-80
2022/09/26 04:18:28;;;;;;;;;0.25;0.25;;;;;12.90;59.51;100223.50;5065407;28;45424;-80
2022/09/26 04:21:04;;;;;;;;;0.25;0.25;;;;;12.90;59.67;100218.22;5056176;28;45590;-81
2022/09/26 04:23:32;;;;;;;;;1.00;1.00;;;;;12.88;59.46;100212.09;5091490;27;45403;-81
2022/09/26 04:26:24;;;;;;;;;0.00;0.00;;;;;12.86;58.91;100195.41;5095839;27;45528;-79
2022/09/26 04:28:53;;;;;;;;;0.75;0.75;;;;;12.84;59.25;100189.25;5113236;27;45366;-80
2022/09/26 04:31:20;;;;;;;;;0.75;0.75;;;;;12.84;58.95;100194.56;5099344;27;45473;-81
2022/09/26 04:33:46;;;;;;;;;1.00;1.00;;;;;12.65;59.63;100159.88;5094858;27;46094;-81
2022/09/26 04:36:13;;;;;;;;;0.75;0.25;;;;;12.84;58.74;100177.78;5093839;27;45339;-80
2022/09/26 04:38:39;;;;;;;;;1.00;0.00;;;;;12.66;59.23;100144.84;5094723;27;45477;-80
2022/09/26 04:41:07;;;;;;;;;0.75;0.75;;;;;12.86;58.99;100170.63;5094698;27;45333;-79
2022/09/26 04:43:33;;;;;;;;;0.00;0.00;;;;;12.84;59.47;100173.34;5075899;27;45551;-80
2022/09/26 04:45:58;;;;;;;;;1.00;1.00;;;;;12.85;59.35;100175.09;5074334;27;45735;-80
2022/09/26 04:48:23;;;;;;;;;0.00;0.00;;;;;12.53;59.40;100116.13;5094716;27;45423;-81
2022/09/26 04:50:49;;;;;;;;;0.00;0.00;;;;;12.71;59.06;100125.19;5093914;27;45329;-81
2022/09/26 04:53:16;;;;;;;;;0.25;0.25;;;;;12.83;59.20;100153.06;5094241;27;45400;-80
2022/09/26 04:55:46;;;;;;;;;1.00;1.00;;;;;12.58;58.61;100092.94;5092423;27;45314;-80
2022/09/26 04:58:13;;;;;;;;;1.00;1.00;;;;;12.84;58.78;100141.53;5114089;27;45627;-80
2022/09/26 05:00:44;;;;;;;;;2.00;1.00;;;;;12.88;59.23;100144.94;5098506;27;45447;-81
2022/09/26 05:03:12;;;;;;;;;2.75;1.00;;;;;12.84;59.48;100135.34;5101698;27;45559;-80
2022/09/26 05:05:39;;;;;;;;;0.00;0.00;;;;;12.46;59.21;100080.13;5108769;27;45456;-80
2022/09/26 05:08:04;;;;;;;;;0.00;0.00;;;;;12.83;59.47;100139.81;5122218;27;45466;-80
2022/09/26 05:10:30;;;;;;;;;3.00;1.00;;;;;12.83;59.18;100136.28;5118725;27;45587;-80
2022/09/26 05:12:58;;;;;;;;;1.25;1.25;;;;;12.81;59.50;100128.38;5120411;27;46199;-80
2022/09/26 05:15:24;;;;;;;;;0.00;0.00;;;;;12.68;59.22;100092.59;5101190;27;45359;-80
2022/09/26 05:17:55;;;;;;;;;0.00;0.00;;;;;12.73;59.93;100098.63;5098115;27;45572;-80
2022/09/26 05:20:22;;;;;;;;;0.50;0.50;;;;;12.75;59.90;100099.44;5118131;27;45509;-79
2022/09/26 05:22:48;;;;;;;;;1.75;1.00;;;;;12.83;59.97;100099.16;5117863;27;46212;-81
2022/09/26 05:27:57;;;;;;;;;1.50;0.25;;;;;12.79;59.67;100086.00;5100018;27;45424;-81
2022/09/26 05:30:24;;;;;;;;;0.50;0.50;;;;;12.72;59.78;100080.97;5100799;27;45531;-81
2022/09/26 05:32:50;;;;;;;;;2.00;2.00;;;;;12.66;60.21;100052.03;5079654;27;46441;-80
2022/09/26 05:35:15;;;;;;;;;2.00;2.00;;;;;12.73;60.29;100067.66;5097844;27;45554;-81
2022/09/26 05:37:40;;;;;;;;;3.75;1.00;;;;;12.71;60.26;100060.72;5081586;27;45740;-79
2022/09/26 05:43:13;;;;;;;;;0.50;0.50;;;;;12.77;60.98;100079.91;5014138;28;45522;-80
2022/09/26 05:45:39;;;;;;;;;0.00;0.00;;;;;12.75;60.79;100078.22;5014221;28;45376;-80
2022/09/26 05:48:05;;;;;;;;;1.00;1.00;;;;;12.77;60.82;100079.03;5029471;28;45473;-80
2022/09/26 05:50:31;;;;;;;;;1.00;1.00;;;;;12.72;60.96;100073.91;5033201;28;45620;-81
2022/09/26 05:53:01;;;;;;;;;0.50;0.50;;;;;12.69;61.25;100060.72;5034195;28;46655;-80
2022/09/26 05:55:28;;;;;;;;;1.00;1.00;;;;;12.52;60.85;100029.53;5034005;28;45455;-81
2022/09/26 05:57:57;;;;;;;;;3.00;1.00;;;;;12.73;61.13;100061.50;5033468;28;45559;-80
2022/09/26 06:00:23;;;;;;;;;1.00;1.00;;;;;12.72;61.04;100060.66;5034195;28;45456;-80
2022/09/26 06:02:58;;;;;;;;;0.00;0.00;;;;;12.53;61.46;100033.94;5036439;28;45495;-81
2022/09/26 06:05:24;;;;;;;;;1.00;1.00;;;;;12.40;61.70;100003.50;5034919;28;45300;-80
2022/09/26 06:07:51;;;;;;;;;0.75;0.75;;;;;12.27;61.14;99990.69;5037989;28;45390;-79
2022/09/26 06:10:18;;;;;;;;;0.50;0.50;;;;;12.52;61.53;100026.91;5040241;28;45450;-80
2022/09/26 06:12:43;;;;;;;;;1.00;0.75;;;;;12.69;61.73;100066.03;5033497;27;45630;-80
2022/09/26 06:15:08;;;;;;;;;0.50;0.50;;;;;12.63;61.29;100055.66;5094816;27;45456;-80
2022/09/26 06:17:35;;;;;;;;;2.00;1.00;;;;;12.62;61.62;100060.09;5096403;27;45389;-81
2022/09/26 06:20:01;;;;;;;;;1.00;1.00;;;;;12.63;61.46;100053.00;5097250;27;45486;-81
2022/09/26 06:22:27;;;;;;;;;1.00;1.00;;;;;12.67;61.81;100057.28;5095680;27;47463;-81
2022/09/26 06:24:53;;;;;;;;;1.00;1.00;;;;;12.61;61.50;100037.16;5097306;27;45406;-80
2022/09/26 06:27:19;;;;;;;;;1.00;1.00;;;;;12.58;61.75;100045.22;5097012;27;45478;-81
2022/09/26 06:29:44;;;;;;;;;1.00;1.00;;;;;12.69;62.07;100050.13;5079477;27;45514;-80
2022/09/26 06:32:10;;;;;;;;;2.00;0.00;;;;;12.68;61.91;100042.22;5096767;27;45912;-79
2022/09/26 06:34:35;;;;;;;;;2.00;0.00;;;;;12.72;61.38;100051.81;5096284;27;45336;-80
2022/09/26 06:37:00;;;;;;;;;1.00;1.00;;;;;12.48;61.37;100003.22;5093891;27;45350;-80
2022/09/26 06:39:34;;;;;;;;;1.25;1.00;;;;;12.71;61.83;100047.44;5095230;27;45622;-80
2022/09/26 06:42:04;;;;;;;;;1.00;1.00;;;;;12.75;61.97;100033.13;5096394;27;46134;-81
2022/09/26 06:44:30;;;;;;;;;0.75;0.00;;;;;12.66;61.45;100018.44;5096293;27;45460;-80
2022/09/26 06:46:56;;;;;;;;;1.50;1.50;;;;;12.72;61.63;100026.19;5094813;27;45411;-80
2022/09/26 06:49:22;;;;;;;;;1.00;0.75;;;;;12.74;61.61;100036.72;5077112;27;46753;-81
2022/09/26 06:51:50;;;;;;;;;1.00;1.00;;;;;12.46;61.75;99979.41;5078193;27;45476;-81
2022/09/26 06:54:16;;;;;;;;;1.00;1.00;;;;;12.75;61.44;100025.19;5083884;27;45415;-81
2022/09/26 06:56:41;;;;;;;;;2.00;0.75;;;;;12.64;61.49;99996.41;5081298;27;45481;-81
2022/09/26 06:59:07;;;;;;;;;1.25;0.00;;;;;12.72;61.49;99999.66;5093052;27;45437;-82
2022/09/26 07:01:32;;;;;;;;;2.00;1.25;;;;;12.85;61.55;100012.44;5079349;27;46270;-81
2022/09/26 07:03:58;;;;;;;;;2.50;1.00;;;;;12.91;61.42;100010.41;5082641;27;45500;-80
2022/09/26 07:06:23;;;;;;;;;0.00;0.00;;;;;12.95;61.30;100005.84;5081301;27;45495;-81
2022/09/26 07:08:50;;;;;;;;;1.25;1.00;;;;;13.00;61.68;100003.00;5087689;27;45452;-80
2022/09/26 07:11:16;;;;;;;;;1.00;1.00;;;;;13.08;60.86;99999.16;5086896;27;46330;-80
2022/09/26 07:13:43;;;;;;;;;1.00;1.00;;;;;13.18;61.05;100004.97;5087675;27;45397;-80
2022/09/26 07:16:09;;;;;;;;;1.00;1.00;;;;;13.23;61.10;99991.50;5087961;27;45663;-81
2022/09/26 07:18:35;;;;;;;;;2.75;2.00;;;;;13.25;60.10;99979.03;5082543;27;45633;-80
2022/09/26 07:21:13;;;;;;;;;1.00;1.00;;;;;13.39;60.20;99986.47;5066405;28;48297;-81
2022/09/26 07:23:39;;;;;;;;;0.75;0.75;;;;;13.43;59.56;99973.00;5070292;27;45477;-81
2022/09/26 07:26:07;;;;;;;;;1.00;1.00;;;;;13.45;59.75;99962.31;5089391;27;45551;-80
2022/09/26 07:28:33;;;;;;;;;1.75;1.00;;;;;13.46;59.63;99966.72;5094820;27;45293;-81
2022/09/26 07:31:40;;;;;;;;;1.25;1.00;;;;;13.51;58.90;99967.38;5069705;27;45476;-80
2022/09/26 07:34:12;;;;;;;;;1.00;1.00;;;;;13.50;58.95;99945.28;5087006;27;45410;-81
2022/09/26 07:36:39;;;;;;;;;1.00;1.00;;;;;13.41;58.85;99931.53;5089009;27;45408;-81
2022/09/26 07:39:05;;;;;;;;;0.50;0.50;;;;;13.16;58.76;99874.13;5091832;27;45455;-81
2022/09/26 07:42:03;;;;;;;;;2.00;2.00;;;;;13.63;59.14;99928.81;5096001;27;46057;-79
2022/09/26 07:44:47;;;;;;;;;1.50;1.50;;;;;13.39;58.50;99885.59;5094765;27;45501;-79
2022/09/26 07:50:37;;;;;;;;;0.75;0.00;;;;;13.54;58.51;99889.41;5088594;27;46018;-81
2022/09/26 07:53:06;;;;;;;;;0.75;0.75;;;;;13.76;58.03;99921.22;5077982;27;45541;-81
2022/09/26 07:55:31;;;;;;;;;0.50;0.50;;;;;13.72;58.00;99922.25;5084255;27;45484;-78
2022/09/26 07:57:58;;;;;;;;;1.50;1.00;;;;;13.71;58.46;99913.44;5079181;27;45451;-81
2022/09/26 08:00:25;;;;;;;;;2.00;2.00;;;;;13.71;58.15;99908.13;5084818;27;45343;-80
2022/09/26 08:02:51;;;;;;;;;0.00;0.00;;;;;13.73;57.82;99906.25;5091054;27;45535;-81
2022/09/26 08:05:18;;;;;;;;;2.00;1.00;;;;;13.75;58.36;99908.84;5103824;27;44913;-81
2022/09/26 08:07:45;;;;;;;;;1.00;1.00;;;;;13.85;58.27;99910.19;5097335;27;45399;-80
2022/09/26 08:10:22;;;;;;;;;2.00;0.75;;;;;13.91;57.79;99909.03;5089449;27;45568;-80
2022/09/26 08:12:49;;;;;;;;;1.00;1.00;;;;;13.98;57.70;99910.50;5076787;27;46148;-81
2022/09/26 08:15:16;;;;;;;;;1.00;1.00;;;;;14.03;57.80;99909.34;5087452;27;45528;-80
2022/09/26 08:17:42;;;;;;;;;1.00;1.00;;;;;14.05;56.97;99903.97;5069488;27;45589;-80
2022/09/26 08:20:29;;;;;;;;;3.00;2.00;;;;;14.03;57.20;99896.06;5092441;27;45487;-80
2022/09/26 08:26:30;;;;;;;;;1.00;1.00;;;;;14.24;57.20;99892.50;5054890;28;45501;-80
2022/09/26 08:29:22;;;;;;;;;1.75;1.25;;;;;14.52;56.08;99881.47;5034310;28;45518;-80
2022/09/26 08:31:46;;;;;;;;;1.00;1.00;;;;;14.63;55.67;99852.56;5055360;28;45658;-79
2022/09/26 08:34:26;;;;;;;;;1.25;1.00;;;;;14.82;55.09;99849.91;5035541;28;46250;-80
2022/09/26 08:36:53;;;;;;;;;1.75;1.75;;;;;15.03;54.65;99852.41;5059518;28;45480;-80
2022/09/26 08:39:30;;;;;;;;;1.00;1.00;;;;;14.80;53.57;99755.13;5060210;28;45659;-81
2022/09/26 08:42:31;;;;;;;;;2.00;2.00;;;;;15.73;53.16;99869.25;5037938;28;45512;-80
2022/09/26 08:48:26;;;;;;;;;1.00;1.00;;;;;16.23;51.49;99845.31;5046073;28;45583;-81
2022/09/26 08:51:16;;;;;;;;;0.75;0.75;;;;;16.11;51.17;99783.75;5054618;28;45536;-81
2022/09/26 08:53:50;;;;;;;;;1.00;1.00;;;;;16.74;50.08;99835.34;5071525;27;45506;-80
2022/09/26 08:56:21;;;;;;;;;0.50;0.00;;;;;16.67;49.64;99801.94;5053840;28;45493;-80
2022/09/26 08:58:51;;;;;;;;;1.00;1.00;;;;;16.80;49.34;99802.97;5057232;28;45600;-81
2022/09/26 09:01:25;;;;;;;;;3.00;1.00;;;;;17.05;48.82;99822.94;5069335;28;45516;-80
2022/09/26 09:03:54;;;;;;;;;1.00;1.00;;;;;16.95;48.50;99805.75;5088329;27;45425;-79
2022/09/26 09:06:27;;;;;;;;;0.25;0.25;;;;;16.95;48.80;99811.09;5093360;27;46260;-80
2022/09/26 09:08:55;;;;;;;;;1.00;1.00;;;;;16.90;48.59;99810.47;5096797;27;45564;-81
2022/09/26 09:11:29;;;;;;;;;1.25;0.25;;;;;16.98;48.40;99805.56;5089793;27;45347;-79
2022/09/26 09:14:27;;;;;;;;;2.00;1.00;;;;;17.25;48.41;99800.41;5095589;27;45717;-81
2022/09/26 09:17:25;;;;;;;;;1.75;1.75;;;;;17.15;48.24;99743.16;5090222;27;45416;-80
2022/09/26 09:20:06;;;;;;;;;0.00;0.00;;;;;17.83;46.96;99795.13;5087871;27;45651;-80
2022/09/26 09:23:01;;;;;;;;;0.50;0.50;;;;;17.98;46.05;99774.63;5093248;27;45477;-80
2022/09/26 09:25:34;;;;;;;;;1.00;1.00;;;;;18.10;45.98;99771.16;5083542;27;45909;-80
2022/09/26 09:28:08;;;;;;;;;0.50;0.50;;;;;18.09;45.93;99772.09;5074105;27;45396;-81
2022/09/26 09:30:50;;;;;;;;;1.00;1.00;;;;;18.26;45.65;99763.00;5087602;27;45541;-81
2022/09/26 09:33:38;;;;;;;;;1.00;1.00;;;;;18.51;45.31;99761.38;5081094;27;45486;-80
2022/09/26 09:36:18;;;;;;;;;1.00;1.00;;;;;18.46;44.84;99732.25;5063735;27;45376;-80
2022/09/26 09:38:47;;;;;;;;;1.25;1.00;;;;;18.34;44.53;99728.59;5091354;27;45570;-82
2022/09/26 09:41:16;;;;;;;;;1.00;1.00;;;;;18.06;44.79;99716.16;5069083;27;45498;-81
2022/09/26 09:43:50;;;;;;;;;2.00;1.00;;;;;17.98;44.98;99737.19;5081356;27;45502;-81
2022/09/26 09:46:26;;;;;;;;;2.00;0.50;;;;;17.68;45.51;99719.44;5084859;27;45414;-81
2022/09/26 09:49:01;;;;;;;;;1.75;1.00;;;;;17.35;45.97;99723.25;5085921;27;46184;-80
2022/09/26 09:51:39;;;;;;;;;1.00;1.00;;;;;17.33;46.36;99709.97;5089339;27;45480;-81
2022/09/26 09:54:07;;;;;;;;;0.00;0.00;;;;;17.34;46.59;99725.06;5088802;27;45551;-80
2022/09/26 09:56:44;;;;;;;;;1.00;1.00;;;;;17.26;46.37;99727.31;5087953;27;45289;-82
2022/09/26 09:59:39;;;;;;;;;1.75;1.00;;;;;17.00;46.44;99684.38;5096072;27;45627;-82
2022/09/26 10:02:18;;;;;;;;;0.00;0.00;;;;;16.96;46.66;99696.22;5081037;27;45459;-82
2022/09/26 10:04:58;;;;;;;;;1.00;1.00;;;;;16.80;47.31;99700.72;5092819;27;45576;-81
2022/09/26 10:07:23;;;;;;;;;0.00;0.00;;;;;16.51;48.43;99664.16;5087824;27;45546;-81
2022/09/26 10:09:50;;;;;;;;;1.50;1.00;;;;;16.51;48.49;99657.97;5071569;27;46434;-81
2022/09/26 10:12:19;;;;;;;;;0.00;0.00;;;;;16.67;50.15;99695.25;5086849;27;45409;-83
2022/09/26 10:14:51;;;;;;;;;1.00;1.00;;;;;16.67;51.38;99689.91;5099845;27;45395;-83
2022/09/26 10:17:19;;;;;;;;;0.25;0.25;;;;;16.13;48.95;99591.75;5091794;27;45403;-83
2022/09/26 10:19:45;;;;;;;;;1.00;1.00;;;;;15.80;49.04;99555.47;5087372;27;46248;-84
2022/09/26 10:22:36;;;;;;;;;1.00;1.00;;;;;16.01;48.63;99598.66;5092253;27;45468;-83
2022/09/26 10:25:20;;;;;;;;;1.00;1.00;;;;;15.89;49.26;99594.88;5095748;27;45254;-84
2022/09/26 10:27:53;;;;;;;;;1.50;1.00;;;;;16.12;49.68;99641.56;5091442;27;45478;-84
2022/09/26 10:30:25;;;;;;;;;1.25;0.00;;;;;16.28;49.86;99659.31;5091597;27;45740;-83
2022/09/26 10:32:54;;;;;;;;;2.00;2.00;;;;;16.11;50.21;99617.63;5094281;27;45332;-84
2022/09/26 10:35:23;;;;;;;;;2.00;1.00;;;;;15.72;50.14;99539.03;5100122;27;45444;-84
2022/09/26 10:38:00;;;;;;;;;0.50;0.50;;;;;16.31;49.60;99629.81;5094771;27;44994;-84
2022/09/26 10:40:45;;;;;;;;;0.75;0.75;;;;;16.17;50.28;99607.47;5098534;27;46312;-81
2022/09/26 10:43:32;;;;;;;;;1.00;1.00;;;;;16.30;50.61;99622.75;5097386;27;45441;-84
2022/09/26 10:46:06;;;;;;;;;0.50;0.00;;;;;16.21;51.09;99591.31;5091998;27;45382;-81
2022/09/26 10:48:55;;;;;;;;;0.50;0.50;;;;;16.24;50.40;99612.44;5081453;27;45544;-83
2022/09/26 10:51:46;;;;;;;;;1.00;1.00;;;;;16.10;51.11;99611.44;5087874;27;45666;-84
2022/09/26 10:54:17;;;;;;;;;0.25;0.25;;;;;16.11;51.83;99610.50;5100185;27;45404;-82
2022/09/26 10:56:47;;;;;;;;;1.25;1.25;;;;;15.91;52.38;99586.81;5103972;27;45350;-82
2022/09/26 10:59:16;;;;;;;;;0.25;0.25;;;;;16.07;52.63;99595.63;5101985;27;45256;-83
2022/09/26 11:01:45;;;;;;;;;1.00;1.00;;;;;15.93;53.18;99571.59;5101647;27;45414;-82
2022/09/26 11:07:09;;;;;;;;;0.75;0.75;;;;;15.99;52.92;99581.91;5095296;27;45489;-84
2022/09/26 11:09:37;;;;;;;;;0.50;0.00;;;;;15.93;54.38;99590.25;5099549;27;45541;-83
2022/09/26 11:12:24;;;;;;;;;1.00;1.00;;;;;15.90;55.50;99585.09;5091744;27;46616;-83
2022/09/26 11:15:13;;;;;;;;;0.00;0.00;;;;;15.61;55.99;99558.31;5095512;27;45350;-79
2022/09/26 11:17:39;;;;;;;;;1.75;1.75;;;;;15.69;56.28;99574.69;5072892;28;45498;-83
2022/09/26 11:20:08;;;;;;;;;1.00;1.00;;;;;15.48;56.92;99542.16;5093191;27;45407;-81
2022/09/26 11:22:40;;;;;;;;;1.00;1.00;;;;;15.62;57.17;99562.66;5100032;27;45458;-83
2022/09/26 11:25:16;;;;;;;;;0.50;0.50;;;;;15.62;57.65;99557.34;5082176;27;45386;-83
2022/09/26 11:27:50;;;;;;;;;0.00;0.00;;;;;15.52;59.41;99556.16;5085524;27;45333;-83
2022/09/26 11:30:19;;;;;;;;;2.25;1.00;;;;;15.31;60.01;99553.75;5086468;27;45479;-83
2022/09/26 11:32:51;;;;;;;;;2.00;1.00;;;;;15.31;60.51;99560.88;5099325;27;45546;-83
2022/09/26 11:35:32;;;;;;;;;1.00;1.00;;;;;15.28;61.57;99559.25;5085829;27;45769;-83
2022/09/26 11:38:25;;;;;;;;;2.00;1.25;;;;;15.19;61.91;99549.97;5085561;27;45395;-84
2022/09/26 11:41:35;;;;;;;;;3.00;1.75;;;;;15.09;63.22;99540.75;5078673;27;45555;-80
2022/09/26 11:44:19;;;;;;;;;1.00;1.00;;;;;15.00;64.38;99534.16;5090896;27;45627;-82
2022/09/26 11:47:06;;;;;;;;;0.00;0.00;;;;;14.82;65.62;99520.06;5089193;27;45740;-81
2022/09/26 11:49:53;;;;;;;;;0.75;0.75;;;;;14.73;65.73;99526.72;5079636;27;45640;-83
2022/09/26 11:52:43;;;;;;;;;1.25;1.00;;;;;14.56;67.00;99524.06;5095926;27;45433;-81
2022/09/26 11:55:29;;;;;;;;;2.75;2.00;;;;;14.45;67.87;99507.84;5087399;27;45662;-82
2022/09/26 11:58:13;;;;;;;;;1.00;1.00;;;;;14.37;69.90;99502.91;5097666;27;45583;-82
2022/09/26 12:01:18;;;;;;;;;2.00;1.00;;;;;14.22;69.30;99499.25;5085010;27;45598;-80
2022/09/26 12:04:11;;;;;;;;;0.75;0.75;;;;;14.08;70.00;99494.66;5083326;27;45441;-81
2022/09/26 12:07:01;;;;;;;;;2.00;2.00;;;;;14.04;70.86;99491.31;5078597;27;46390;-82
2022/09/26 12:10:04;;;;;;;;;1.00;1.00;;;;;13.94;70.72;99483.88;5084856;27;45307;-81
2022/09/26 12:12:44;;;;;;;;;2.00;2.00;;;;;13.62;71.17;99462.47;5082428;27;45389;-81
2022/09/26 12:15:20;;;;;;;;;1.00;1.00;;;;;13.57;72.58;99480.44;5095467;27;45594;-81